Airfield :
LOGIN :

Register | Disclaimer

   EN    FR    IT 

 










Legend :    VFR   Marginal VFR   IFR   Intensive IFR   Very Intensive IFR
Visi :
Ceiling :
>= 8 km
>= 3000ft
5 to 8 km
1000 to 3000 ft
1500m to 5 km
500 to 1000 ft
800 to 1500m
200 to 500 ft
< 800m
< 200 ft
Symbols :   Thunderstorms  Fog  Heavy snow  Heavy precipitations  Wind > 20 kt
SIGMETs :     Misc.  Thunderstorms  Icing  Turbulence  Mountain Waves  Volcanic Ashes







- Airport Elevation : 38 ft
- IATA code : ADX


EGQL - RAF Leuchars

CURRENT METAR :
  • 241250Z AUTO 14008KT 9999 FEW070/// SCT110/// 16/12 Q1017 RERA

EXPIRED METARs :
  • 241150Z 12008KT CAVOK 14/12 Q1017 BLU
  • 241050Z 13008KT 9999 -SHRA BKN060 14/11 Q1017 BLU

TAF TAF EGQL
Valid from the 24 at 12:00 until the 24 at 21:00 UTC


241031Z 2412/2421 13006KT 9999 FEW040
PROB30
TEMPO 2419/2421 SCT007
No reported NOTAMs for that airfield.



MET'MAP, your aeronautical weather chart ! - Copyright ORBIFLY December 2007 - Disclaimer

ORBIFLY MET'MAP TEAM :

Programming & Development : Alexandra Zaïnal
Concept & Development : Baudouin d'Aumeries
Co-Development & Prog : Marc-Olivier Méhu
Technical & hardware support : Manuel Goepfert

Contact : metmap@orbifly.com




SOURCES & CREDITS :

   NOAA